Aviation Digital Data Service (ADDS)

Output produced by METARs form (1438 UTC 22 April 2019)
found at http://www.aviationweather.gov/metar/data/
 
METAR text: UBBG 221430Z 08012KT 050V110 9999 OVC066 07/03 Q1019 R12/CLRD// NOSIG
Conditions at: UBBG (GYANDZHA , AZ) observed 1430 UTC 22 April 2019
Temperature: 7.0°C (45°F)
Dewpoint: 3.0°C (37°F) [RH = 76%]
Pressure (altimeter): 30.09 inches Hg (1019.0 mb)
Winds: from the E (80 degrees) at 14 MPH (12 knots; 6.2 m/s)
Visibility: 6 or more miles (10+ km)
Ceiling: 6600 feet AGL
Clouds: overcast cloud deck at 6600 feet AGL
Weather: no significant weather observed at this time

METAR text: UBBG 221400Z 05010KT 9999 OVC066 08/03 Q1018 R12/CLRD// NOSIG
Conditions at: UBBG (GYANDZHA , AZ) observed 1400 UTC 22 April 2019
Temperature: 8.0°C (46°F)
Dewpoint: 3.0°C (37°F) [RH = 71%]
Pressure (altimeter): 30.06 inches Hg (1018.0 mb)
Winds: from the NE (50 degrees) at 12 MPH (10 knots; 5.1 m/s)
Visibility: 6 or more miles (10+ km)
Ceiling: 6600 feet AGL
Clouds: overcast cloud deck at 6600 feet AGL
Weather: no significant weather observed at this time

METAR text: UBBG 221330Z 06010KT 9999 OVC066 08/03 Q1018 R12/CLRD// NOSIG
Conditions at: UBBG (GYANDZHA , AZ) observed 1330 UTC 22 April 2019
Temperature: 8.0°C (46°F)
Dewpoint: 3.0°C (37°F) [RH = 71%]
Pressure (altimeter): 30.06 inches Hg (1018.0 mb)
Winds: from the ENE (60 degrees) at 12 MPH (10 knots; 5.1 m/s)
Visibility: 6 or more miles (10+ km)
Ceiling: 6600 feet AGL
Clouds: overcast cloud deck at 6600 feet AGL
Weather: no significant weather observed at this time

METAR text: UBBG 221300Z 07010KT 9999 OVC066 09/03 Q1018 R12/CLRD// NOSIG
Conditions at: UBBG (GYANDZHA , AZ) observed 1300 UTC 22 April 2019
Temperature: 9.0°C (48°F)
Dewpoint: 3.0°C (37°F) [RH = 66%]
Pressure (altimeter): 30.06 inches Hg (1018.0 mb)
Winds: from the ENE (70 degrees) at 12 MPH (10 knots; 5.1 m/s)
Visibility: 6 or more miles (10+ km)
Ceiling: 6600 feet AGL
Clouds: overcast cloud deck at 6600 feet AGL
Weather: no significant weather observed at this time

METAR text: UBBG 221230Z 07012KT 9999 OVC066 09/04 Q1018 R12/CLRD// NOSIG
Conditions at: UBBG (GYANDZHA , AZ) observed 1230 UTC 22 April 2019
Temperature: 9.0°C (48°F)
Dewpoint: 4.0°C (39°F) [RH = 71%]
Pressure (altimeter): 30.06 inches Hg (1018.0 mb)
Winds: from the ENE (70 degrees) at 14 MPH (12 knots; 6.2 m/s)
Visibility: 6 or more miles (10+ km)
Ceiling: 6600 feet AGL
Clouds: overcast cloud deck at 6600 feet AGL
Weather: no significant weather observed at this time

METAR text: UBBG 221200Z 06012KT 9999 SCT030 BKN083 09/02 Q1017 R12/CLRD// NOSIG
Conditions at: UBBG (GYANDZHA , AZ) observed 1200 UTC 22 April 2019
Temperature: 9.0°C (48°F)
Dewpoint: 2.0°C (36°F) [RH = 61%]
Pressure (altimeter): 30.03 inches Hg (1017.0 mb)
Winds: from the ENE (60 degrees) at 14 MPH (12 knots; 6.2 m/s)
Visibility: 6 or more miles (10+ km)
Ceiling: 8300 feet AGL
Clouds: scattered clouds at 3000 feet AGL
broken clouds at 8300 feet AGL
Weather: no significant weather observed at this time

METAR text: UBBG 221130Z 07014KT 9999 SCT030 BKN083 09/02 Q1017 R12/CLRD// NOSIG
Conditions at: UBBG (GYANDZHA , AZ) observed 1130 UTC 22 April 2019
Temperature: 9.0°C (48°F)
Dewpoint: 2.0°C (36°F) [RH = 61%]
Pressure (altimeter): 30.03 inches Hg (1017.0 mb)
Winds: from the ENE (70 degrees) at 16 MPH (14 knots; 7.2 m/s)
Visibility: 6 or more miles (10+ km)
Ceiling: 8300 feet AGL
Clouds: scattered clouds at 3000 feet AGL
broken clouds at 8300 feet AGL
Weather: no significant weather observed at this time

METAR text: UBBG 221100Z 08014KT 9999 SCT030 BKN083 09/02 Q1018 R12/CLRD// NOSIG
Conditions at: UBBG (GYANDZHA , AZ) observed 1100 UTC 22 April 2019
Temperature: 9.0°C (48°F)
Dewpoint: 2.0°C (36°F) [RH = 61%]
Pressure (altimeter): 30.06 inches Hg (1018.0 mb)
Winds: from the E (80 degrees) at 16 MPH (14 knots; 7.2 m/s)
Visibility: 6 or more miles (10+ km)
Ceiling: 8300 feet AGL
Clouds: scattered clouds at 3000 feet AGL
broken clouds at 8300 feet AGL
Weather: no significant weather observed at this time

METAR text: UBBG 221030Z 08016KT 9999 SCT030 BKN083 10/02 Q1018 R12/CLRD// NOSIG
Conditions at: UBBG (GYANDZHA , AZ) observed 1030 UTC 22 April 2019
Temperature: 10.0°C (50°F)
Dewpoint: 2.0°C (36°F) [RH = 57%]
Pressure (altimeter): 30.06 inches Hg (1018.0 mb)
Winds: from the E (80 degrees) at 18 MPH (16 knots; 8.2 m/s)
Visibility: 6 or more miles (10+ km)
Ceiling: 8300 feet AGL
Clouds: scattered clouds at 3000 feet AGL
broken clouds at 8300 feet AGL
Weather: no significant weather observed at this time

METAR text: UBBG 221000Z 07016KT 9999 SCT030 BKN083 09/02 Q1018 R12/CLRD// NOSIG
Conditions at: UBBG (GYANDZHA , AZ) observed 1000 UTC 22 April 2019
Temperature: 9.0°C (48°F)
Dewpoint: 2.0°C (36°F) [RH = 61%]
Pressure (altimeter): 30.06 inches Hg (1018.0 mb)
Winds: from the ENE (70 degrees) at 18 MPH (16 knots; 8.2 m/s)
Visibility: 6 or more miles (10+ km)
Ceiling: 8300 feet AGL
Clouds: scattered clouds at 3000 feet AGL
broken clouds at 8300 feet AGL
Weather: no significant weather observed at this time

METAR text: UBBG 220930Z 08018KT 9999 SCT030 BKN083 09/02 Q1017 R12/CLRD// NOSIG
Conditions at: UBBG (GYANDZHA , AZ) observed 0930 UTC 22 April 2019
Temperature: 9.0°C (48°F)
Dewpoint: 2.0°C (36°F) [RH = 61%]
Pressure (altimeter): 30.03 inches Hg (1017.0 mb)
Winds: from the E (80 degrees) at 21 MPH (18 knots; 9.3 m/s)
Visibility: 6 or more miles (10+ km)
Ceiling: 8300 feet AGL
Clouds: scattered clouds at 3000 feet AGL
broken clouds at 8300 feet AGL
Weather: no significant weather observed at this time

METAR text: UBBG 220900Z 07020KT 9999 SCT030 BKN083 09/02 Q1017 R12/CLRD// NOSIG
Conditions at: UBBG (GYANDZHA , AZ) observed 0900 UTC 22 April 2019
Temperature: 9.0°C (48°F)
Dewpoint: 2.0°C (36°F) [RH = 61%]
Pressure (altimeter): 30.03 inches Hg (1017.0 mb)
Winds: from the ENE (70 degrees) at 23 MPH (20 knots; 10.3 m/s)
Visibility: 6 or more miles (10+ km)
Ceiling: 8300 feet AGL
Clouds: scattered clouds at 3000 feet AGL
broken clouds at 8300 feet AGL
Weather: no significant weather observed at this time

METAR text: UBBG 220830Z 08022KT 9999 SCT030 BKN083 10/02 Q1017 R12/CLRD// NOSIG
Conditions at: UBBG (GYANDZHA , AZ) observed 0830 UTC 22 April 2019
Temperature: 10.0°C (50°F)
Dewpoint: 2.0°C (36°F) [RH = 57%]
Pressure (altimeter): 30.03 inches Hg (1017.0 mb)
Winds: from the E (80 degrees) at 25 MPH (22 knots; 11.3 m/s)
Visibility: 6 or more miles (10+ km)
Ceiling: 8300 feet AGL
Clouds: scattered clouds at 3000 feet AGL
broken clouds at 8300 feet AGL
Weather: no significant weather observed at this time

METAR text: UBBG 220800Z 07020KT 9999 SCT030 BKN083 10/01 Q1017 R12/CLRD// NOSIG
Conditions at: UBBG (GYANDZHA , AZ) observed 0800 UTC 22 April 2019
Temperature: 10.0°C (50°F)
Dewpoint: 1.0°C (34°F) [RH = 53%]
Pressure (altimeter): 30.03 inches Hg (1017.0 mb)
Winds: from the ENE (70 degrees) at 23 MPH (20 knots; 10.3 m/s)
Visibility: 6 or more miles (10+ km)
Ceiling: 8300 feet AGL
Clouds: scattered clouds at 3000 feet AGL
broken clouds at 8300 feet AGL
Weather: no significant weather observed at this time

METAR text: UBBG 220730Z 08020KT 9999 SCT030 BKN083 10/02 Q1017 R12/CLRD// NOSIG
Conditions at: UBBG (GYANDZHA , AZ) observed 0730 UTC 22 April 2019
Temperature: 10.0°C (50°F)
Dewpoint: 2.0°C (36°F) [RH = 57%]
Pressure (altimeter): 30.03 inches Hg (1017.0 mb)
Winds: from the E (80 degrees) at 23 MPH (20 knots; 10.3 m/s)
Visibility: 6 or more miles (10+ km)
Ceiling: 8300 feet AGL
Clouds: scattered clouds at 3000 feet AGL
broken clouds at 8300 feet AGL
Weather: no significant weather observed at this time

METAR text: UBBG 220700Z 10022KT 9999 SCT030 BKN083 10/01 Q1018 R12/CLRD// NOSIG
Conditions at: UBBG (GYANDZHA , AZ) observed 0700 UTC 22 April 2019
Temperature: 10.0°C (50°F)
Dewpoint: 1.0°C (34°F) [RH = 53%]
Pressure (altimeter): 30.06 inches Hg (1018.0 mb)
Winds: from the E (100 degrees) at 25 MPH (22 knots; 11.3 m/s)
Visibility: 6 or more miles (10+ km)
Ceiling: 8300 feet AGL
Clouds: scattered clouds at 3000 feet AGL
broken clouds at 8300 feet AGL
Weather: no significant weather observed at this time

METAR text: UBBG 220630Z 10022KT 9999 SCT015 BKN050 09/01 Q1018 R12/CLRD// NOSIG
Conditions at: UBBG (GYANDZHA , AZ) observed 0630 UTC 22 April 2019
Temperature: 9.0°C (48°F)
Dewpoint: 1.0°C (34°F) [RH = 57%]
Pressure (altimeter): 30.06 inches Hg (1018.0 mb)
Winds: from the E (100 degrees) at 25 MPH (22 knots; 11.3 m/s)
Visibility: 6 or more miles (10+ km)
Ceiling: 5000 feet AGL
Clouds: scattered clouds at 1500 feet AGL
broken clouds at 5000 feet AGL
Weather: no significant weather observed at this time

METAR text: UBBG 220600Z 10020KT 9999 SCT015 BKN050 08/02 Q1018 R12/CLRD// NOSIG
Conditions at: UBBG (GYANDZHA , AZ) observed 0600 UTC 22 April 2019
Temperature: 8.0°C (46°F)
Dewpoint: 2.0°C (36°F) [RH = 66%]
Pressure (altimeter): 30.06 inches Hg (1018.0 mb)
Winds: from the E (100 degrees) at 23 MPH (20 knots; 10.3 m/s)
Visibility: 6 or more miles (10+ km)
Ceiling: 5000 feet AGL
Clouds: scattered clouds at 1500 feet AGL
broken clouds at 5000 feet AGL
Weather: no significant weather observed at this time

METAR text: UBBG 220530Z 10018KT 9999 SCT015 BKN050 08/03 Q1018 R12/CLRD// NOSIG
Conditions at: UBBG (GYANDZHA , AZ) observed 0530 UTC 22 April 2019
Temperature: 8.0°C (46°F)
Dewpoint: 3.0°C (37°F) [RH = 71%]
Pressure (altimeter): 30.06 inches Hg (1018.0 mb)
Winds: from the E (100 degrees) at 21 MPH (18 knots; 9.3 m/s)
Visibility: 6 or more miles (10+ km)
Ceiling: 5000 feet AGL
Clouds: scattered clouds at 1500 feet AGL
broken clouds at 5000 feet AGL
Weather: no significant weather observed at this time

METAR text: UBBG 220500Z 09018KT 9999 BKN020 07/03 Q1018 R12/CLRD// NOSIG
Conditions at: UBBG (GYANDZHA , AZ) observed 0500 UTC 22 April 2019
Temperature: 7.0°C (45°F)
Dewpoint: 3.0°C (37°F) [RH = 76%]
Pressure (altimeter): 30.06 inches Hg (1018.0 mb)
Winds: from the E (90 degrees) at 21 MPH (18 knots; 9.3 m/s)
Visibility: 6 or more miles (10+ km)
Ceiling: 2000 feet AGL
Clouds: broken clouds at 2000 feet AGL
Weather: no significant weather observed at this time

METAR text: UBBG 220430Z 09018KT 9999 BKN015 07/04 Q1018 R12/CLRD// NOSIG
Conditions at: UBBG (GYANDZHA , AZ) observed 0430 UTC 22 April 2019
Temperature: 7.0°C (45°F)
Dewpoint: 4.0°C (39°F) [RH = 81%]
Pressure (altimeter): 30.06 inches Hg (1018.0 mb)
Winds: from the E (90 degrees) at 21 MPH (18 knots; 9.3 m/s)
Visibility: 6 or more miles (10+ km)
Ceiling: 1500 feet AGL
Clouds: broken clouds at 1500 feet AGL
Weather: no significant weather observed at this time

METAR text: UBBG 220400Z 10018KT 9999 OVC006 07/05 Q1018 R12/CLRD// NOSIG
Conditions at: UBBG (GYANDZHA , AZ) observed 0400 UTC 22 April 2019
Temperature: 7.0°C (45°F)
Dewpoint: 5.0°C (41°F) [RH = 87%]
Pressure (altimeter): 30.06 inches Hg (1018.0 mb)
Winds: from the E (100 degrees) at 21 MPH (18 knots; 9.3 m/s)
Visibility: 6 or more miles (10+ km)
Ceiling: 600 feet AGL
Clouds: overcast cloud deck at 600 feet AGL
Weather: no significant weather observed at this time

METAR text: UBBG 220330Z 10016KT 9999 OVC010 06/04 Q1018 R12/CLRD// NOSIG
Conditions at: UBBG (GYANDZHA , AZ) observed 0330 UTC 22 April 2019
Temperature: 6.0°C (43°F)
Dewpoint: 4.0°C (39°F) [RH = 87%]
Pressure (altimeter): 30.06 inches Hg (1018.0 mb)
Winds: from the E (100 degrees) at 18 MPH (16 knots; 8.2 m/s)
Visibility: 6 or more miles (10+ km)
Ceiling: 1000 feet AGL
Clouds: overcast cloud deck at 1000 feet AGL
Weather: no significant weather observed at this time

METAR text: UBBG 220300Z 09012KT 9999 OVC010 06/05 Q1017 R12/CLRD// NOSIG
Conditions at: UBBG (GYANDZHA , AZ) observed 0300 UTC 22 April 2019
Temperature: 6.0°C (43°F)
Dewpoint: 5.0°C (41°F) [RH = 93%]
Pressure (altimeter): 30.03 inches Hg (1017.0 mb)
Winds: from the E (90 degrees) at 14 MPH (12 knots; 6.2 m/s)
Visibility: 6 or more miles (10+ km)
Ceiling: 1000 feet AGL
Clouds: overcast cloud deck at 1000 feet AGL
Weather: no significant weather observed at this time

METAR text: UBBG 220230Z 10014KT 9999 OVC010 06/05 Q1017 R12/CLRD// NOSIG
Conditions at: UBBG (GYANDZHA , AZ) observed 0230 UTC 22 April 2019
Temperature: 6.0°C (43°F)
Dewpoint: 5.0°C (41°F) [RH = 93%]
Pressure (altimeter): 30.03 inches Hg (1017.0 mb)
Winds: from the E (100 degrees) at 16 MPH (14 knots; 7.2 m/s)
Visibility: 6 or more miles (10+ km)
Ceiling: 1000 feet AGL
Clouds: overcast cloud deck at 1000 feet AGL
Weather: no significant weather observed at this time

METAR text: UBBG 220200Z 10016KT 9999 OVC010 06/05 Q1017 R12/CLRD// NOSIG
Conditions at: UBBG (GYANDZHA , AZ) observed 0200 UTC 22 April 2019
Temperature: 6.0°C (43°F)
Dewpoint: 5.0°C (41°F) [RH = 93%]
Pressure (altimeter): 30.03 inches Hg (1017.0 mb)
Winds: from the E (100 degrees) at 18 MPH (16 knots; 8.2 m/s)
Visibility: 6 or more miles (10+ km)
Ceiling: 1000 feet AGL
Clouds: overcast cloud deck at 1000 feet AGL
Weather: no significant weather observed at this time

METAR text: UBBG 220130Z 09016KT 9999 OVC030 06/05 Q1017 R12/CLRD// NOSIG
Conditions at: UBBG (GYANDZHA , AZ) observed 0130 UTC 22 April 2019
Temperature: 6.0°C (43°F)
Dewpoint: 5.0°C (41°F) [RH = 93%]
Pressure (altimeter): 30.03 inches Hg (1017.0 mb)
Winds: from the E (90 degrees) at 18 MPH (16 knots; 8.2 m/s)
Visibility: 6 or more miles (10+ km)
Ceiling: 3000 feet AGL
Clouds: overcast cloud deck at 3000 feet AGL
Weather: no significant weather observed at this time

METAR text: UBBG 220100Z 09014KT 9999 OVC030 06/05 Q1017 R12/CLRD// NOSIG
Conditions at: UBBG (GYANDZHA , AZ) observed 0100 UTC 22 April 2019
Temperature: 6.0°C (43°F)
Dewpoint: 5.0°C (41°F) [RH = 93%]
Pressure (altimeter): 30.03 inches Hg (1017.0 mb)
Winds: from the E (90 degrees) at 16 MPH (14 knots; 7.2 m/s)
Visibility: 6 or more miles (10+ km)
Ceiling: 3000 feet AGL
Clouds: overcast cloud deck at 3000 feet AGL
Weather: no significant weather observed at this time

METAR text: UBBG 220030Z 08016KT 9999 OVC030 06/04 Q1017 R12/CLRD// NOSIG
Conditions at: UBBG (GYANDZHA , AZ) observed 0030 UTC 22 April 2019
Temperature: 6.0°C (43°F)
Dewpoint: 4.0°C (39°F) [RH = 87%]
Pressure (altimeter): 30.03 inches Hg (1017.0 mb)
Winds: from the E (80 degrees) at 18 MPH (16 knots; 8.2 m/s)
Visibility: 6 or more miles (10+ km)
Ceiling: 3000 feet AGL
Clouds: overcast cloud deck at 3000 feet AGL
Weather: no significant weather observed at this time

METAR text: UBBG 220000Z 08014KT 9999 OVC030 06/04 Q1018 R12/CLRD// NOSIG
Conditions at: UBBG (GYANDZHA , AZ) observed 0000 UTC 22 April 2019
Temperature: 6.0°C (43°F)
Dewpoint: 4.0°C (39°F) [RH = 87%]
Pressure (altimeter): 30.06 inches Hg (1018.0 mb)
Winds: from the E (80 degrees) at 16 MPH (14 knots; 7.2 m/s)
Visibility: 6 or more miles (10+ km)
Ceiling: 3000 feet AGL
Clouds: overcast cloud deck at 3000 feet AGL
Weather: no significant weather observed at this time

METAR text: UBBG 212330Z 08014KT 9999 OVC030 07/04 Q1018 R12/CLRD// NOSIG
Conditions at: UBBG (GYANDZHA , AZ) observed 2330 UTC 21 April 2019
Temperature: 7.0°C (45°F)
Dewpoint: 4.0°C (39°F) [RH = 81%]
Pressure (altimeter): 30.06 inches Hg (1018.0 mb)
Winds: from the E (80 degrees) at 16 MPH (14 knots; 7.2 m/s)
Visibility: 6 or more miles (10+ km)
Ceiling: 3000 feet AGL
Clouds: overcast cloud deck at 3000 feet AGL
Weather: no significant weather observed at this time

METAR text: UBBG 212300Z 09016KT 9999 OVC030 07/04 Q1018 R12/CLRD// NOSIG
Conditions at: UBBG (GYANDZHA , AZ) observed 2300 UTC 21 April 2019
Temperature: 7.0°C (45°F)
Dewpoint: 4.0°C (39°F) [RH = 81%]
Pressure (altimeter): 30.06 inches Hg (1018.0 mb)
Winds: from the E (90 degrees) at 18 MPH (16 knots; 8.2 m/s)
Visibility: 6 or more miles (10+ km)
Ceiling: 3000 feet AGL
Clouds: overcast cloud deck at 3000 feet AGL
Weather: no significant weather observed at this time

METAR text: UBBG 212230Z 08016KT 9999 OVC030 07/03 Q1018 R12/CLRD// NOSIG
Conditions at: UBBG (GYANDZHA , AZ) observed 2230 UTC 21 April 2019
Temperature: 7.0°C (45°F)
Dewpoint: 3.0°C (37°F) [RH = 76%]
Pressure (altimeter): 30.06 inches Hg (1018.0 mb)
Winds: from the E (80 degrees) at 18 MPH (16 knots; 8.2 m/s)
Visibility: 6 or more miles (10+ km)
Ceiling: 3000 feet AGL
Clouds: overcast cloud deck at 3000 feet AGL
Weather: no significant weather observed at this time

METAR text: UBBG 212200Z 08016KT 9999 OVC030 07/04 Q1018 R12/CLRD// NOSIG
Conditions at: UBBG (GYANDZHA , AZ) observed 2200 UTC 21 April 2019
Temperature: 7.0°C (45°F)
Dewpoint: 4.0°C (39°F) [RH = 81%]
Pressure (altimeter): 30.06 inches Hg (1018.0 mb)
Winds: from the E (80 degrees) at 18 MPH (16 knots; 8.2 m/s)
Visibility: 6 or more miles (10+ km)
Ceiling: 3000 feet AGL
Clouds: overcast cloud deck at 3000 feet AGL
Weather: no significant weather observed at this time

METAR text: UBBG 212130Z 08018KT 9999 OVC030 07/05 Q1019 R12/CLRD// NOSIG
Conditions at: UBBG (GYANDZHA , AZ) observed 2130 UTC 21 April 2019
Temperature: 7.0°C (45°F)
Dewpoint: 5.0°C (41°F) [RH = 87%]
Pressure (altimeter): 30.09 inches Hg (1019.0 mb)
Winds: from the E (80 degrees) at 21 MPH (18 knots; 9.3 m/s)
Visibility: 6 or more miles (10+ km)
Ceiling: 3000 feet AGL
Clouds: overcast cloud deck at 3000 feet AGL
Weather: no significant weather observed at this time

METAR text: UBBG 212100Z 07016KT 9999 OVC030 07/05 Q1019 R12/CLRD// NOSIG
Conditions at: UBBG (GYANDZHA , AZ) observed 2100 UTC 21 April 2019
Temperature: 7.0°C (45°F)
Dewpoint: 5.0°C (41°F) [RH = 87%]
Pressure (altimeter): 30.09 inches Hg (1019.0 mb)
Winds: from the ENE (70 degrees) at 18 MPH (16 knots; 8.2 m/s)
Visibility: 6 or more miles (10+ km)
Ceiling: 3000 feet AGL
Clouds: overcast cloud deck at 3000 feet AGL
Weather: no significant weather observed at this time

METAR text: UBBG 212030Z 08014KT 9999 OVC030 07/04 Q1019 R12/CLRD// NOSIG
Conditions at: UBBG (GYANDZHA , AZ) observed 2030 UTC 21 April 2019
Temperature: 7.0°C (45°F)
Dewpoint: 4.0°C (39°F) [RH = 81%]
Pressure (altimeter): 30.09 inches Hg (1019.0 mb)
Winds: from the E (80 degrees) at 16 MPH (14 knots; 7.2 m/s)
Visibility: 6 or more miles (10+ km)
Ceiling: 3000 feet AGL
Clouds: overcast cloud deck at 3000 feet AGL
Weather: no significant weather observed at this time

METAR text: UBBG 212000Z 08010KT 9999 OVC030 07/04 Q1019 R12/CLRD// NOSIG
Conditions at: UBBG (GYANDZHA , AZ) observed 2000 UTC 21 April 2019
Temperature: 7.0°C (45°F)
Dewpoint: 4.0°C (39°F) [RH = 81%]
Pressure (altimeter): 30.09 inches Hg (1019.0 mb)
Winds: from the E (80 degrees) at 12 MPH (10 knots; 5.1 m/s)
Visibility: 6 or more miles (10+ km)
Ceiling: 3000 feet AGL
Clouds: overcast cloud deck at 3000 feet AGL
Weather: no significant weather observed at this time

METAR text: UBBG 211930Z 08012KT 9999 -RA OVC030 08/04 Q1019 R12/CLRD// NOSIG
Conditions at: UBBG (GYANDZHA , AZ) observed 1930 UTC 21 April 2019
Temperature: 8.0°C (46°F)
Dewpoint: 4.0°C (39°F) [RH = 76%]
Pressure (altimeter): 30.09 inches Hg (1019.0 mb)
Winds: from the E (80 degrees) at 14 MPH (12 knots; 6.2 m/s)
Visibility: 6 or more miles (10+ km)
Ceiling: 3000 feet AGL
Clouds: overcast cloud deck at 3000 feet AGL
Weather: -RA  (light rain)

METAR text: UBBG 211900Z 07008KT 9999 -RA OVC030 08/05 Q1019 R12/CLRD// NOSIG
Conditions at: UBBG (GYANDZHA , AZ) observed 1900 UTC 21 April 2019
Temperature: 8.0°C (46°F)
Dewpoint: 5.0°C (41°F) [RH = 81%]
Pressure (altimeter): 30.09 inches Hg (1019.0 mb)
Winds: from the ENE (70 degrees) at 9 MPH (8 knots; 4.1 m/s)
Visibility: 6 or more miles (10+ km)
Ceiling: 3000 feet AGL
Clouds: overcast cloud deck at 3000 feet AGL
Weather: -RA  (light rain)

METAR text: UBBG 211830Z 09010KT 9999 -RA OVC030 08/04 Q1019 R12/CLRD// NOSIG
Conditions at: UBBG (GYANDZHA , AZ) observed 1830 UTC 21 April 2019
Temperature: 8.0°C (46°F)
Dewpoint: 4.0°C (39°F) [RH = 76%]
Pressure (altimeter): 30.09 inches Hg (1019.0 mb)
Winds: from the E (90 degrees) at 12 MPH (10 knots; 5.1 m/s)
Visibility: 6 or more miles (10+ km)
Ceiling: 3000 feet AGL
Clouds: overcast cloud deck at 3000 feet AGL
Weather: -RA  (light rain)

METAR text: UBBG 211800Z 09010KT 9999 -RA OVC030 08/05 Q1019 R12/CLRD// NOSIG
Conditions at: UBBG (GYANDZHA , AZ) observed 1800 UTC 21 April 2019
Temperature: 8.0°C (46°F)
Dewpoint: 5.0°C (41°F) [RH = 81%]
Pressure (altimeter): 30.09 inches Hg (1019.0 mb)
Winds: from the E (90 degrees) at 12 MPH (10 knots; 5.1 m/s)
Visibility: 6 or more miles (10+ km)
Ceiling: 3000 feet AGL
Clouds: overcast cloud deck at 3000 feet AGL
Weather: -RA  (light rain)

METAR text: UBBG 211730Z 10012KT 9999 -RA OVC030 08/05 Q1019 R12/CLRD// NOSIG
Conditions at: UBBG (GYANDZHA , AZ) observed 1730 UTC 21 April 2019
Temperature: 8.0°C (46°F)
Dewpoint: 5.0°C (41°F) [RH = 81%]
Pressure (altimeter): 30.09 inches Hg (1019.0 mb)
Winds: from the E (100 degrees) at 14 MPH (12 knots; 6.2 m/s)
Visibility: 6 or more miles (10+ km)
Ceiling: 3000 feet AGL
Clouds: overcast cloud deck at 3000 feet AGL
Weather: -RA  (light rain)

METAR text: UBBG 211700Z 11012KT 9999 -RA OVC030 08/05 Q1019 R12/CLRD// NOSIG
Conditions at: UBBG (GYANDZHA , AZ) observed 1700 UTC 21 April 2019
Temperature: 8.0°C (46°F)
Dewpoint: 5.0°C (41°F) [RH = 81%]
Pressure (altimeter): 30.09 inches Hg (1019.0 mb)
Winds: from the ESE (110 degrees) at 14 MPH (12 knots; 6.2 m/s)
Visibility: 6 or more miles (10+ km)
Ceiling: 3000 feet AGL
Clouds: overcast cloud deck at 3000 feet AGL
Weather: -RA  (light rain)

METAR text: UBBG 211630Z 10008KT 9999 -RA OVC030 08/05 Q1019 R12/CLRD// NOSIG
Conditions at: UBBG (GYANDZHA , AZ) observed 1630 UTC 21 April 2019
Temperature: 8.0°C (46°F)
Dewpoint: 5.0°C (41°F) [RH = 81%]
Pressure (altimeter): 30.09 inches Hg (1019.0 mb)
Winds: from the E (100 degrees) at 9 MPH (8 knots; 4.1 m/s)
Visibility: 6 or more miles (10+ km)
Ceiling: 3000 feet AGL
Clouds: overcast cloud deck at 3000 feet AGL
Weather: -RA  (light rain)

METAR text: UBBG 211600Z 09010KT 9999 SCT025 OVC050 08/05 Q1019 R12/CLRD// NOSIG
Conditions at: UBBG (GYANDZHA , AZ) observed 1600 UTC 21 April 2019
Temperature: 8.0°C (46°F)
Dewpoint: 5.0°C (41°F) [RH = 81%]
Pressure (altimeter): 30.09 inches Hg (1019.0 mb)
Winds: from the E (90 degrees) at 12 MPH (10 knots; 5.1 m/s)
Visibility: 6 or more miles (10+ km)
Ceiling: 5000 feet AGL
Clouds: scattered clouds at 2500 feet AGL
overcast cloud deck at 5000 feet AGL
Weather: no significant weather observed at this time

METAR text: UBBG 211530Z 10010KT 9999 SCT025 OVC050 08/05 Q1019 R12/CLRD// NOSIG
Conditions at: UBBG (GYANDZHA , AZ) observed 1530 UTC 21 April 2019
Temperature: 8.0°C (46°F)
Dewpoint: 5.0°C (41°F) [RH = 81%]
Pressure (altimeter): 30.09 inches Hg (1019.0 mb)
Winds: from the E (100 degrees) at 12 MPH (10 knots; 5.1 m/s)
Visibility: 6 or more miles (10+ km)
Ceiling: 5000 feet AGL
Clouds: scattered clouds at 2500 feet AGL
overcast cloud deck at 5000 feet AGL
Weather: no significant weather observed at this time

METAR text: UBBG 211500Z 10010KT 9999 SCT025 OVC050 08/04 Q1019 R12/CLRD// NOSIG
Conditions at: UBBG (GYANDZHA , AZ) observed 1500 UTC 21 April 2019
Temperature: 8.0°C (46°F)
Dewpoint: 4.0°C (39°F) [RH = 76%]
Pressure (altimeter): 30.09 inches Hg (1019.0 mb)
Winds: from the E (100 degrees) at 12 MPH (10 knots; 5.1 m/s)
Visibility: 6 or more miles (10+ km)
Ceiling: 5000 feet AGL
Clouds: scattered clouds at 2500 feet AGL
overcast cloud deck at 5000 feet AGL
Weather: no significant weather observed at this time

METAR text: UBBG 211430Z 10014KT 9999 SCT025 OVC050 08/04 Q1019 R12/CLRD// NOSIG
Conditions at: UBBG (GYANDZHA , AZ) observed 1430 UTC 21 April 2019
Temperature: 8.0°C (46°F)
Dewpoint: 4.0°C (39°F) [RH = 76%]
Pressure (altimeter): 30.09 inches Hg (1019.0 mb)
Winds: from the E (100 degrees) at 16 MPH (14 knots; 7.2 m/s)
Visibility: 6 or more miles (10+ km)
Ceiling: 5000 feet AGL
Clouds: scattered clouds at 2500 feet AGL
overcast cloud deck at 5000 feet AGL
Weather: no significant weather observed at this time

METAR text: UBBG 211400Z 09014KT 9999 OVC040 09/04 Q1019 R12/CLRD// NOSIG
Conditions at: UBBG (GYANDZHA , AZ) observed 1400 UTC 21 April 2019
Temperature: 9.0°C (48°F)
Dewpoint: 4.0°C (39°F) [RH = 71%]
Pressure (altimeter): 30.09 inches Hg (1019.0 mb)
Winds: from the E (90 degrees) at 16 MPH (14 knots; 7.2 m/s)
Visibility: 6 or more miles (10+ km)
Ceiling: 4000 feet AGL
Clouds: overcast cloud deck at 4000 feet AGL
Weather: no significant weather observed at this time

METAR text: UBBG 211330Z 08014KT 9999 OVC025 09/04 Q1019 R12/CLRD// NOSIG
Conditions at: UBBG (GYANDZHA , AZ) observed 1330 UTC 21 April 2019
Temperature: 9.0°C (48°F)
Dewpoint: 4.0°C (39°F) [RH = 71%]
Pressure (altimeter): 30.09 inches Hg (1019.0 mb)
Winds: from the E (80 degrees) at 16 MPH (14 knots; 7.2 m/s)
Visibility: 6 or more miles (10+ km)
Ceiling: 2500 feet AGL
Clouds: overcast cloud deck at 2500 feet AGL
Weather: no significant weather observed at this time

METAR text: UBBG 211300Z 09014KT 9999 OVC025 09/04 Q1019 R12/CLRD// NOSIG
Conditions at: UBBG (GYANDZHA , AZ) observed 1300 UTC 21 April 2019
Temperature: 9.0°C (48°F)
Dewpoint: 4.0°C (39°F) [RH = 71%]
Pressure (altimeter): 30.09 inches Hg (1019.0 mb)
Winds: from the E (90 degrees) at 16 MPH (14 knots; 7.2 m/s)
Visibility: 6 or more miles (10+ km)
Ceiling: 2500 feet AGL
Clouds: overcast cloud deck at 2500 feet AGL
Weather: no significant weather observed at this time

METAR text: UBBG 211230Z 08014KT 9999 OVC030 09/05 Q1019 R12/CLRD// NOSIG
Conditions at: UBBG (GYANDZHA , AZ) observed 1230 UTC 21 April 2019
Temperature: 9.0°C (48°F)
Dewpoint: 5.0°C (41°F) [RH = 76%]
Pressure (altimeter): 30.09 inches Hg (1019.0 mb)
Winds: from the E (80 degrees) at 16 MPH (14 knots; 7.2 m/s)
Visibility: 6 or more miles (10+ km)
Ceiling: 3000 feet AGL
Clouds: overcast cloud deck at 3000 feet AGL
Weather: no significant weather observed at this time

METAR text: UBBG 211200Z 08012KT 9999 OVC025 09/04 Q1019 R12/CLRD// NOSIG
Conditions at: UBBG (GYANDZHA , AZ) observed 1200 UTC 21 April 2019
Temperature: 9.0°C (48°F)
Dewpoint: 4.0°C (39°F) [RH = 71%]
Pressure (altimeter): 30.09 inches Hg (1019.0 mb)
Winds: from the E (80 degrees) at 14 MPH (12 knots; 6.2 m/s)
Visibility: 6 or more miles (10+ km)
Ceiling: 2500 feet AGL
Clouds: overcast cloud deck at 2500 feet AGL
Weather: no significant weather observed at this time

METAR text: UBBG 211130Z 08012KT 9999 OVC025 09/04 Q1019 R12/CLRD// NOSIG
Conditions at: UBBG (GYANDZHA , AZ) observed 1130 UTC 21 April 2019
Temperature: 9.0°C (48°F)
Dewpoint: 4.0°C (39°F) [RH = 71%]
Pressure (altimeter): 30.09 inches Hg (1019.0 mb)
Winds: from the E (80 degrees) at 14 MPH (12 knots; 6.2 m/s)
Visibility: 6 or more miles (10+ km)
Ceiling: 2500 feet AGL
Clouds: overcast cloud deck at 2500 feet AGL
Weather: no significant weather observed at this time

METAR text: UBBG 211100Z 09012KT 9999 OVC025 09/04 Q1019 R12/CLRD// NOSIG
Conditions at: UBBG (GYANDZHA , AZ) observed 1100 UTC 21 April 2019
Temperature: 9.0°C (48°F)
Dewpoint: 4.0°C (39°F) [RH = 71%]
Pressure (altimeter): 30.09 inches Hg (1019.0 mb)
Winds: from the E (90 degrees) at 14 MPH (12 knots; 6.2 m/s)
Visibility: 6 or more miles (10+ km)
Ceiling: 2500 feet AGL
Clouds: overcast cloud deck at 2500 feet AGL
Weather: no significant weather observed at this time

METAR text: UBBG 211030Z 09014KT 9999 OVC025 09/04 Q1019 R12/CLRD// NOSIG
Conditions at: UBBG (GYANDZHA , AZ) observed 1030 UTC 21 April 2019
Temperature: 9.0°C (48°F)
Dewpoint: 4.0°C (39°F) [RH = 71%]
Pressure (altimeter): 30.09 inches Hg (1019.0 mb)
Winds: from the E (90 degrees) at 16 MPH (14 knots; 7.2 m/s)
Visibility: 6 or more miles (10+ km)
Ceiling: 2500 feet AGL
Clouds: overcast cloud deck at 2500 feet AGL
Weather: no significant weather observed at this time

METAR text: UBBG 211000Z 09016KT 9999 OVC025 09/04 Q1019 R12/CLRD// NOSIG
Conditions at: UBBG (GYANDZHA , AZ) observed 1000 UTC 21 April 2019
Temperature: 9.0°C (48°F)
Dewpoint: 4.0°C (39°F) [RH = 71%]
Pressure (altimeter): 30.09 inches Hg (1019.0 mb)
Winds: from the E (90 degrees) at 18 MPH (16 knots; 8.2 m/s)
Visibility: 6 or more miles (10+ km)
Ceiling: 2500 feet AGL
Clouds: overcast cloud deck at 2500 feet AGL
Weather: no significant weather observed at this time

METAR text: UBBG 210930Z 08018KT 9999 OVC025 09/03 Q1019 R12/CLRD// NOSIG
Conditions at: UBBG (GYANDZHA , AZ) observed 0930 UTC 21 April 2019
Temperature: 9.0°C (48°F)
Dewpoint: 3.0°C (37°F) [RH = 66%]
Pressure (altimeter): 30.09 inches Hg (1019.0 mb)
Winds: from the E (80 degrees) at 21 MPH (18 knots; 9.3 m/s)
Visibility: 6 or more miles (10+ km)
Ceiling: 2500 feet AGL
Clouds: overcast cloud deck at 2500 feet AGL
Weather: no significant weather observed at this time

METAR text: UBBG 210900Z 08018KT 9999 OVC025 08/03 Q1019 R12/CLRD// NOSIG
Conditions at: UBBG (GYANDZHA , AZ) observed 0900 UTC 21 April 2019
Temperature: 8.0°C (46°F)
Dewpoint: 3.0°C (37°F) [RH = 71%]
Pressure (altimeter): 30.09 inches Hg (1019.0 mb)
Winds: from the E (80 degrees) at 21 MPH (18 knots; 9.3 m/s)
Visibility: 6 or more miles (10+ km)
Ceiling: 2500 feet AGL
Clouds: overcast cloud deck at 2500 feet AGL
Weather: no significant weather observed at this time

METAR text: UBBG 210830Z 08018KT 9999 OVC025 09/04 Q1019 R12/CLRD// NOSIG
Conditions at: UBBG (GYANDZHA , AZ) observed 0830 UTC 21 April 2019
Temperature: 9.0°C (48°F)
Dewpoint: 4.0°C (39°F) [RH = 71%]
Pressure (altimeter): 30.09 inches Hg (1019.0 mb)
Winds: from the E (80 degrees) at 21 MPH (18 knots; 9.3 m/s)
Visibility: 6 or more miles (10+ km)
Ceiling: 2500 feet AGL
Clouds: overcast cloud deck at 2500 feet AGL
Weather: no significant weather observed at this time

METAR text: UBBG 210800Z 09016KT 9999 OVC015 08/04 Q1020 R12/CLRD// NOSIG
Conditions at: UBBG (GYANDZHA , AZ) observed 0800 UTC 21 April 2019
Temperature: 8.0°C (46°F)
Dewpoint: 4.0°C (39°F) [RH = 76%]
Pressure (altimeter): 30.12 inches Hg (1020.0 mb)
Winds: from the E (90 degrees) at 18 MPH (16 knots; 8.2 m/s)
Visibility: 6 or more miles (10+ km)
Ceiling: 1500 feet AGL
Clouds: overcast cloud deck at 1500 feet AGL
Weather: no significant weather observed at this time

METAR text: UBBG 210730Z 08016KT 9999 OVC015 09/04 Q1020 R12/CLRD// NOSIG
Conditions at: UBBG (GYANDZHA , AZ) observed 0730 UTC 21 April 2019
Temperature: 9.0°C (48°F)
Dewpoint: 4.0°C (39°F) [RH = 71%]
Pressure (altimeter): 30.12 inches Hg (1020.0 mb)
Winds: from the E (80 degrees) at 18 MPH (16 knots; 8.2 m/s)
Visibility: 6 or more miles (10+ km)
Ceiling: 1500 feet AGL
Clouds: overcast cloud deck at 1500 feet AGL
Weather: no significant weather observed at this time

METAR text: UBBG 210700Z 09016KT 9999 OVC012 07/04 Q1020 R12/CLRD// NOSIG
Conditions at: UBBG (GYANDZHA , AZ) observed 0700 UTC 21 April 2019
Temperature: 7.0°C (45°F)
Dewpoint: 4.0°C (39°F) [RH = 81%]
Pressure (altimeter): 30.12 inches Hg (1020.0 mb)
Winds: from the E (90 degrees) at 18 MPH (16 knots; 8.2 m/s)
Visibility: 6 or more miles (10+ km)
Ceiling: 1200 feet AGL
Clouds: overcast cloud deck at 1200 feet AGL
Weather: no significant weather observed at this time

METAR text: UBBG 210630Z 09014KT 9999 OVC010 07/04 Q1020 R12/CLRD// NOSIG
Conditions at: UBBG (GYANDZHA , AZ) observed 0630 UTC 21 April 2019
Temperature: 7.0°C (45°F)
Dewpoint: 4.0°C (39°F) [RH = 81%]
Pressure (altimeter): 30.12 inches Hg (1020.0 mb)
Winds: from the E (90 degrees) at 16 MPH (14 knots; 7.2 m/s)
Visibility: 6 or more miles (10+ km)
Ceiling: 1000 feet AGL
Clouds: overcast cloud deck at 1000 feet AGL
Weather: no significant weather observed at this time

METAR text: UBBG 210600Z 09014KT 9999 OVC008 07/04 Q1020 R12/CLRD// NOSIG
Conditions at: UBBG (GYANDZHA , AZ) observed 0600 UTC 21 April 2019
Temperature: 7.0°C (45°F)
Dewpoint: 4.0°C (39°F) [RH = 81%]
Pressure (altimeter): 30.12 inches Hg (1020.0 mb)
Winds: from the E (90 degrees) at 16 MPH (14 knots; 7.2 m/s)
Visibility: 6 or more miles (10+ km)
Ceiling: 800 feet AGL
Clouds: overcast cloud deck at 800 feet AGL
Weather: no significant weather observed at this time

METAR text: UBBG 210530Z 09014KT 9999 OVC008 06/04 Q1020 R12/CLRD// NOSIG
Conditions at: UBBG (GYANDZHA , AZ) observed 0530 UTC 21 April 2019
Temperature: 6.0°C (43°F)
Dewpoint: 4.0°C (39°F) [RH = 87%]
Pressure (altimeter): 30.12 inches Hg (1020.0 mb)
Winds: from the E (90 degrees) at 16 MPH (14 knots; 7.2 m/s)
Visibility: 6 or more miles (10+ km)
Ceiling: 800 feet AGL
Clouds: overcast cloud deck at 800 feet AGL
Weather: no significant weather observed at this time

METAR text: UBBG 210500Z 09012KT 9999 OVC006 06/04 Q1019 R30/CLRD// NOSIG
Conditions at: UBBG (GYANDZHA , AZ) observed 0500 UTC 21 April 2019
Temperature: 6.0°C (43°F)
Dewpoint: 4.0°C (39°F) [RH = 87%]
Pressure (altimeter): 30.09 inches Hg (1019.0 mb)
Winds: from the E (90 degrees) at 14 MPH (12 knots; 6.2 m/s)
Visibility: 6 or more miles (10+ km)
Ceiling: 600 feet AGL
Clouds: overcast cloud deck at 600 feet AGL
Weather: no significant weather observed at this time

METAR text: UBBG 210430Z 10012KT 9999 OVC005 05/04 Q1019 R30/CLRD// NOSIG
Conditions at: UBBG (GYANDZHA , AZ) observed 0430 UTC 21 April 2019
Temperature: 5.0°C (41°F)
Dewpoint: 4.0°C (39°F) [RH = 93%]
Pressure (altimeter): 30.09 inches Hg (1019.0 mb)
Winds: from the E (100 degrees) at 14 MPH (12 knots; 6.2 m/s)
Visibility: 6 or more miles (10+ km)
Ceiling: 500 feet AGL
Clouds: overcast cloud deck at 500 feet AGL
Weather: no significant weather observed at this time

METAR text: UBBG 210400Z 10012KT 9999 OVC005 05/04 Q1019 R30/CLRD// NOSIG
Conditions at: UBBG (GYANDZHA , AZ) observed 0400 UTC 21 April 2019
Temperature: 5.0°C (41°F)
Dewpoint: 4.0°C (39°F) [RH = 93%]
Pressure (altimeter): 30.09 inches Hg (1019.0 mb)
Winds: from the E (100 degrees) at 14 MPH (12 knots; 6.2 m/s)
Visibility: 6 or more miles (10+ km)
Ceiling: 500 feet AGL
Clouds: overcast cloud deck at 500 feet AGL
Weather: no significant weather observed at this time

METAR text: UBBG 210330Z 10012KT 9999 OVC005 05/04 Q1019 R30/CLRD// NOSIG
Conditions at: UBBG (GYANDZHA , AZ) observed 0330 UTC 21 April 2019
Temperature: 5.0°C (41°F)
Dewpoint: 4.0°C (39°F) [RH = 93%]
Pressure (altimeter): 30.09 inches Hg (1019.0 mb)
Winds: from the E (100 degrees) at 14 MPH (12 knots; 6.2 m/s)
Visibility: 6 or more miles (10+ km)
Ceiling: 500 feet AGL
Clouds: overcast cloud deck at 500 feet AGL
Weather: no significant weather observed at this time

METAR text: UBBG 210300Z 10010KT 9999 OVC005 05/04 Q1019 R30/CLRD// NOSIG
Conditions at: UBBG (GYANDZHA , AZ) observed 0300 UTC 21 April 2019
Temperature: 5.0°C (41°F)
Dewpoint: 4.0°C (39°F) [RH = 93%]
Pressure (altimeter): 30.09 inches Hg (1019.0 mb)
Winds: from the E (100 degrees) at 12 MPH (10 knots; 5.1 m/s)
Visibility: 6 or more miles (10+ km)
Ceiling: 500 feet AGL
Clouds: overcast cloud deck at 500 feet AGL
Weather: no significant weather observed at this time

Forecast for: UBBG (GYANDZHA , AZ)
Text: TAF UBBG 221100Z 2212/2312 08018KT 9999 SCT030 BKN060 TX09/2212Z TN06/2302Z
Forecast period: 1200 to 1800 UTC 22 April 2019
Forecast type: FROM: standard forecast or significant change
Winds: from the E (80 degrees) at 21 MPH (18 knots; 9.3 m/s)
Visibility: 6 or more miles 10+ km)
Ceiling: 6000 feet AGL
Clouds: scattered clouds at 3000 feet AGL
broken clouds at 6000 feet AGL
Weather: no significant weather forecast for this period
Text: TEMPO 2212/2218 10010KT
Forecast period: 1200 to 1800 UTC 22 April 2019
Forecast type: TEMPORARY: The following changes expected for less than half the time period
Winds: from the E (100 degrees) at 12 MPH (10 knots; 5.1 m/s)
Visibility: missing
Ceiling: unknown
Clouds: missing
Weather: no significant weather forecast for this period
Text: BECMG 2218/2220 VRB04KT
Forecast period: 1800 UTC 22 April 2019 to 1200 UTC 23 April 2019
Forecast type: BECOMING: Conditions expected to become as follows by 2000 UTC 22 April 2019
Winds: variable direction winds at 5 MPH (4 knots; 2.1 m/s)
Visibility: 6 or more miles 10+ km)
Ceiling: 6000 feet AGL
Clouds: scattered clouds at 3000 feet AGL
broken clouds at 6000 feet AGL
Weather: no significant weather forecast for this period
Text: TEMPO 2220/2306 12008KT 3000 -RA BR OVC004
Forecast period: 2000 UTC 22 April 2019 to 0600 UTC 23 April 2019
Forecast type: TEMPORARY: The following changes expected for less than half the time period
Winds: from the ESE (120 degrees) at 9 MPH (8 knots; 4.1 m/s)
Visibility: 1.86 miles (2.99 km)
Ceiling: 400 feet AGL
Clouds: overcast cloud deck at 400 feet AGL
Weather: -RA BR  (light rain, mist)